Time;durP1;ratioP1;P1;durP2;ratioP2;P2;SDS_P1;SDS_P2;PMS_P1;PMS_P2;Temp;Humidity;BMP_temperature;BMP_pressure;BME280_temperature;BME280_humidity;BME280_pressure;Samples;Min_cycle;Max_cycle;Signal;HPM_P1;HPM_P2
2022/01/17 00:00:24;;;;;;;7.70;4.38;;;30.60;99.90;;;;;;4972938;28;20025;-73
2022/01/17 00:02:53;;;;;;;5.75;4.07;;;30.70;99.90;;;;;;4970628;28;20769;-75
2022/01/17 00:05:20;;;;;;;7.40;4.15;;;30.60;99.90;;;;;;4970701;28;20546;-73
2022/01/17 00:07:48;;;;;;;9.15;4.95;;;30.70;99.90;;;;;;4974257;28;20145;-74
2022/01/17 00:10:15;;;;;;;10.23;4.75;;;30.70;99.90;;;;;;4971169;28;20486;-74
2022/01/17 00:12:47;;;;;;;6.50;3.58;;;30.80;99.90;;;;;;4973763;28;20105;-73
2022/01/17 00:15:31;;;;;;;8.35;4.85;;;30.60;99.90;;;;;;4971029;28;20042;-74
2022/01/17 00:18:26;;;;;;;6.33;4.20;;;30.60;99.90;;;;;;4969308;28;20046;-75
2022/01/17 00:20:53;;;;;;;8.93;5.40;;;30.60;99.90;;;;;;4968836;28;20050;-74
2022/01/17 00:23:20;;;;;;;8.23;3.90;;;30.70;99.90;;;;;;4974953;28;20855;-75
2022/01/17 00:25:47;;;;;;;6.82;3.65;;;30.90;99.90;;;;;;4980776;28;20035;-74
2022/01/17 00:28:42;;;;;;;6.93;3.60;;;30.80;99.80;;;;;;4980854;28;20944;-75
2022/01/17 00:31:09;;;;;;;5.70;3.80;;;30.80;99.80;;;;;;4973852;28;20030;-75
2022/01/17 00:33:37;;;;;;;8.95;4.25;;;31.10;99.90;;;;;;4972598;28;20034;-76
2022/01/17 00:36:04;;;;;;;5.60;3.30;;;31.20;99.40;;;;;;4977869;28;20085;-77
2022/01/17 00:38:31;;;;;;;6.70;3.97;;;31.50;99.90;;;;;;4980291;28;20023;-76
2022/01/17 00:40:59;;;;;;;7.45;3.45;;;31.70;99.10;;;;;;4978589;28;20375;-76
2022/01/17 00:43:26;;;;;;;9.05;3.30;;;31.60;98.60;;;;;;4976652;28;20023;-78
2022/01/17 00:45:54;;;;;;;8.63;4.40;;;31.60;99.00;;;;;;4971210;28;20496;-76
2022/01/17 00:48:21;;;;;;;6.88;3.67;;;31.50;98.20;;;;;;4967573;28;20031;-75
2022/01/17 00:50:48;;;;;;;4.72;3.45;;;31.70;98.60;;;;;;4973676;28;20034;-74
2022/01/17 00:53:15;;;;;;;5.00;2.80;;;32.00;98.20;;;;;;4965166;28;20027;-73
2022/01/17 00:55:43;;;;;;;4.55;2.92;;;32.30;97.70;;;;;;4972239;28;20078;-74
2022/01/17 00:58:10;;;;;;;5.13;3.25;;;32.20;97.70;;;;;;4971449;28;20330;-74
2022/01/17 01:00:40;;;;;;;5.53;3.92;;;32.10;97.40;;;;;;4973280;28;20027;-75
2022/01/17 01:03:08;;;;;;;5.90;4.20;;;31.90;97.80;;;;;;4972193;28;20060;-75
2022/01/17 01:05:35;;;;;;;5.38;2.90;;;31.70;97.60;;;;;;4979328;28;20038;-75
2022/01/17 01:08:03;;;;;;;4.95;2.90;;;31.90;97.90;;;;;;4986454;28;20034;-77
2022/01/17 01:10:31;;;;;;;4.78;2.88;;;32.10;98.60;;;;;;4971181;28;20370;-78
2022/01/17 01:12:59;;;;;;;7.13;3.72;;;32.30;97.50;;;;;;4980849;28;20432;-78
2022/01/17 01:18:19;;;;;;;5.47;2.75;;;32.20;96.70;;;;;;4957607;28;20026;-75
2022/01/17 01:21:43;;;;;;;5.53;3.33;;;32.00;97.00;;;;;;4970628;28;20053;-75
2022/01/17 01:29:09;;;;;;;6.90;2.78;;;31.70;97.20;;;;;;4969572;28;19925;-74
2022/01/17 01:31:44;;;;;;;6.72;3.45;;;32.30;96.70;;;;;;4976092;28;20045;-75
2022/01/17 01:34:13;;;;;;;4.20;2.50;;;32.30;96.90;;;;;;4967229;28;20253;-75
2022/01/17 01:36:41;;;;;;;4.95;2.92;;;32.30;96.70;;;;;;4974661;28;20117;-75
2022/01/17 01:39:10;;;;;;;4.07;2.47;;;32.50;96.50;;;;;;4973170;28;20394;-78
2022/01/17 01:41:42;;;;;;;7.35;3.38;;;32.60;96.00;;;;;;4974397;28;20027;-78
2022/01/17 01:44:18;;;;;;;6.88;2.97;;;32.60;96.30;;;;;;4965563;28;20028;-76
2022/01/17 01:46:47;;;;;;;5.47;2.95;;;32.60;96.50;;;;;;4971740;28;20026;-76
2022/01/17 01:49:17;;;;;;;8.13;2.95;;;32.80;96.30;;;;;;4974009;28;20076;-75
2022/01/17 01:51:45;;;;;;;7.30;3.03;;;32.70;96.20;;;;;;4974173;28;20038;-77
2022/01/17 01:54:13;;;;;;;5.15;2.45;;;32.70;96.10;;;;;;4969823;28;20062;-77
2022/01/17 01:56:44;;;;;;;6.20;3.17;;;33.10;95.60;;;;;;4975290;28;20072;-85
2022/01/17 01:59:14;;;;;;;6.95;3.00;;;33.50;95.40;;;;;;4968396;28;20030;-77
2022/01/17 02:01:41;;;;;;;14.02;3.83;;;34.10;94.40;;;;;;4971554;28;20031;-77
2022/01/17 02:04:09;;;;;;;4.47;2.72;;;34.40;94.80;;;;;;4972231;28;20042;-78
2022/01/17 02:06:36;;;;;;;6.55;3.00;;;34.60;94.50;;;;;;4971549;28;20031;-77
2022/01/17 02:09:05;;;;;;;5.95;2.72;;;34.80;93.60;;;;;;4970665;28;20038;-76
2022/01/17 02:11:36;;;;;;;4.63;2.08;;;34.60;92.80;;;;;;4972491;28;20031;-76
2022/01/17 02:14:04;;;;;;;5.25;2.33;;;34.50;93.00;;;;;;4969530;28;20030;-74
2022/01/17 02:16:32;;;;;;;4.10;2.80;;;34.40;92.80;;;;;;4971952;28;20039;-76
2022/01/17 02:19:00;;;;;;;6.47;3.35;;;34.30;93.40;;;;;;4966229;28;20478;-77
2022/01/17 02:21:45;;;;;;;3.60;2.65;;;34.10;93.20;;;;;;4972858;28;20482;-77
2022/01/17 02:24:18;;;;;;;3.35;2.50;;;34.00;94.10;;;;;;4969503;28;20054;-77
2022/01/17 02:26:48;;;;;;;10.50;2.63;;;34.00;93.50;;;;;;4976498;28;20129;-77
2022/01/17 02:29:16;;;;;;;2.65;2.28;;;34.10;93.60;;;;;;4975730;28;20043;-77
2022/01/17 02:31:44;;;;;;;4.50;2.90;;;34.50;94.20;;;;;;4977693;28;20019;-80
2022/01/17 02:34:12;;;;;;;5.55;3.08;;;34.50;92.80;;;;;;4969563;28;20037;-77
2022/01/17 02:36:40;;;;;;;4.53;2.42;;;34.40;92.70;;;;;;4976553;28;20041;-78
2022/01/17 02:39:08;;;;;;;5.53;2.78;;;34.40;93.60;;;;;;4972940;28;20481;-78
2022/01/17 02:41:39;;;;;;;2.95;2.47;;;34.40;93.00;;;;;;4977328;28;20041;-75
2022/01/17 02:44:07;;;;;;;5.50;3.03;;;34.20;92.80;;;;;;4970692;28;20034;-76
2022/01/17 02:46:35;;;;;;;4.95;2.63;;;34.20;92.30;;;;;;4977508;28;20030;-76
2022/01/17 02:49:05;;;;;;;4.28;2.88;;;34.40;93.80;;;;;;4974267;28;20108;-76
2022/01/17 02:51:34;;;;;;;6.20;2.97;;;34.80;92.90;;;;;;4975149;28;20024;-77
2022/01/17 02:54:02;;;;;;;4.32;3.05;;;35.00;92.50;;;;;;4970104;28;20055;-74
2022/01/17 02:56:29;;;;;;;7.57;3.22;;;35.20;92.10;;;;;;4974873;28;20096;-78
2022/01/17 02:58:56;;;;;;;4.35;2.10;;;35.60;92.10;;;;;;4971889;28;20026;-76
2022/01/17 03:01:27;;;;;;;4.38;2.72;;;35.90;91.80;;;;;;4968803;28;20404;-77
2022/01/17 03:03:56;;;;;;;5.00;2.78;;;36.20;91.00;;;;;;4972065;28;20037;-76
2022/01/17 03:06:23;;;;;;;4.78;2.90;;;36.30;91.30;;;;;;4970207;28;20033;-74
2022/01/17 03:08:51;;;;;;;3.50;2.58;;;36.40;91.10;;;;;;4958262;28;20105;-81
2022/01/17 03:11:22;;;;;;;2.58;2.08;;;36.40;91.40;;;;;;4973642;28;20029;-76
2022/01/17 03:13:51;;;;;;;3.85;2.00;;;36.10;91.10;;;;;;4973965;28;20076;-76
2022/01/17 03:16:33;;;;;;;5.68;2.53;;;36.20;90.70;;;;;;4973055;28;20401;-76
2022/01/17 03:19:00;;;;;;;4.90;2.17;;;36.60;91.90;;;;;;4972195;28;20050;-76
2022/01/17 03:21:32;;;;;;;4.82;2.67;;;36.50;90.70;;;;;;4975053;28;20039;-75
2022/01/17 03:23:59;;;;;;;4.40;2.40;;;36.60;90.50;;;;;;4970178;28;20074;-78
2022/01/17 03:26:30;;;;;;;3.03;2.28;;;36.70;91.10;;;;;;4972497;28;20031;-76
2022/01/17 03:29:03;;;;;;;3.33;2.40;;;36.80;90.40;;;;;;4964836;28;20110;-75
2022/01/17 03:31:30;;;;;;;3.08;1.75;;;36.60;90.10;;;;;;4975039;28;20025;-76
2022/01/17 03:33:58;;;;;;;4.88;2.63;;;36.60;89.00;;;;;;4973999;28;20102;-77
2022/01/17 03:36:25;;;;;;;4.68;2.28;;;36.60;89.00;;;;;;4975938;28;20034;-79
2022/01/17 03:38:54;;;;;;;4.85;2.30;;;36.40;89.00;;;;;;4975822;28;20031;-76
2022/01/17 03:41:21;;;;;;;2.83;2.05;;;36.40;90.00;;;;;;4973841;28;20193;-76
2022/01/17 03:43:49;;;;;;;6.07;2.80;;;36.10;90.20;;;;;;4969750;28;20030;-75
2022/01/17 03:46:16;;;;;;;3.28;2.40;;;36.10;90.40;;;;;;4969367;28;20126;-76
2022/01/17 03:48:43;;;;;;;4.22;2.58;;;36.30;91.20;;;;;;4970384;28;20026;-76
2022/01/17 03:51:11;;;;;;;3.55;2.53;;;36.30;89.80;;;;;;4971278;28;20448;-76
2022/01/17 03:53:38;;;;;;;2.67;2.40;;;36.40;91.50;;;;;;4973623;28;20034;-77
2022/01/17 03:56:05;;;;;;;3.10;2.28;;;36.40;91.10;;;;;;4966591;28;20038;-77
2022/01/17 03:58:33;;;;;;;5.45;2.15;;;36.20;90.20;;;;;;4972370;28;20026;-75
2022/01/17 04:01:02;;;;;;;4.80;2.35;;;36.20;89.80;;;;;;4971345;28;20050;-76
2022/01/17 04:03:29;;;;;;;3.55;2.80;;;36.20;89.70;;;;;;4970889;28;20377;-74
2022/01/17 04:06:01;;;;;;;3.97;2.50;;;36.20;90.50;;;;;;4976064;28;20031;-76
2022/01/17 04:08:28;;;;;;;3.45;2.17;;;36.50;89.80;;;;;;4973552;28;20023;-76
2022/01/17 04:10:56;;;;;;;4.35;3.00;;;36.70;90.50;;;;;;4974837;28;20089;-76
2022/01/17 04:13:24;;;;;;;4.88;2.92;;;36.60;89.30;;;;;;4974610;28;20030;-75
2022/01/17 04:15:51;;;;;;;4.88;2.03;;;36.40;90.30;;;;;;4978551;28;20078;-75
2022/01/17 04:18:23;;;;;;;3.33;2.10;;;36.20;89.60;;;;;;4982707;28;20796;-75
2022/01/17 04:20:51;;;;;;;5.70;2.63;;;36.10;89.10;;;;;;4970217;28;20058;-74
2022/01/17 04:23:19;;;;;;;5.35;2.13;;;36.10;89.30;;;;;;4976155;28;20050;-75
2022/01/17 04:25:48;;;;;;;3.10;2.05;;;35.90;88.20;;;;;;4974288;28;20505;-74
2022/01/17 04:28:15;;;;;;;4.22;2.33;;;35.70;89.30;;;;;;4964042;28;20581;-73
2022/01/17 04:30:44;;;;;;;4.70;1.98;;;35.60;90.30;;;;;;4969148;28;20052;-76
2022/01/17 04:33:12;;;;;;;3.15;2.40;;;35.50;90.80;;;;;;4970042;28;20497;-74
2022/01/17 04:35:42;;;;;;;5.05;2.92;;;35.60;90.30;;;;;;4970637;28;20451;-75
2022/01/17 04:38:16;;;;;;;4.22;2.38;;;35.50;90.20;;;;;;4975820;28;20023;-75
2022/01/17 04:40:46;;;;;;;;;;;35.50;90.40;;;;;;4979519;28;20039;-76
2022/01/17 04:46:10;;;;;;;3.13;2.20;;;35.20;90.70;;;;;;4948690;28;20049;-76
2022/01/17 04:48:38;;;;;;;4.35;2.20;;;35.20;91.10;;;;;;4967855;28;20301;-77
2022/01/17 04:51:06;;;;;;;5.78;2.50;;;35.10;91.20;;;;;;4973700;28;20066;-75
2022/01/17 04:53:34;;;;;;;5.85;2.90;;;35.10;91.20;;;;;;4986278;28;20023;-73
2022/01/17 04:56:01;;;;;;;4.88;2.40;;;35.10;91.50;;;;;;4985997;28;20108;-74
2022/01/17 04:58:29;;;;;;;4.13;2.10;;;35.20;90.90;;;;;;4986491;28;20026;-74
2022/01/17 05:00:56;;;;;;;5.78;2.78;;;35.20;91.70;;;;;;4990469;28;20061;-73
2022/01/17 05:03:26;;;;;;;6.07;2.60;;;35.10;91.40;;;;;;4970011;28;20023;-73
2022/01/17 05:05:54;;;;;;;3.13;2.05;;;35.10;91.70;;;;;;4973061;28;20039;-73
2022/01/17 05:08:22;;;;;;;2.75;2.30;;;35.00;91.30;;;;;;4973658;28;20034;-73
2022/01/17 05:10:54;;;;;;;4.80;2.75;;;34.90;91.20;;;;;;4964940;28;20025;-73
2022/01/17 05:13:30;;;;;;;3.78;2.15;;;34.70;91.60;;;;;;4964950;28;20374;-74
2022/01/17 05:16:12;;;;;;;4.38;2.38;;;34.60;91.70;;;;;;4980023;28;20073;-74
2022/01/17 05:21:10;;;;;;;7.30;2.80;;;34.40;91.70;;;;;;4967747;28;20030;-76
2022/01/17 05:23:39;;;;;;;4.90;2.25;;;34.50;91.90;;;;;;4964282;28;20062;-75
2022/01/17 05:26:07;;;;;;;5.47;2.90;;;34.50;92.20;;;;;;4972121;28;20035;-75
2022/01/17 05:29:07;;;;;;;4.45;2.55;;;34.50;92.00;;;;;;4977302;28;20113;-74
2022/01/17 05:31:35;;;;;;;4.93;2.50;;;34.70;92.20;;;;;;4972882;28;20348;-74
2022/01/17 05:34:02;;;;;;;2.78;1.92;;;34.70;92.40;;;;;;4966341;28;20038;-73
2022/01/17 05:36:30;;;;;;;4.05;2.35;;;34.80;91.30;;;;;;4970103;28;20045;-73
2022/01/17 05:38:57;;;;;;;3.90;2.35;;;34.90;91.10;;;;;;4970052;28;20044;-72
2022/01/17 05:41:24;;;;;;;6.03;2.15;;;34.90;90.10;;;;;;4974432;28;20048;-74
2022/01/17 05:43:52;;;;;;;2.95;2.28;;;35.30;90.60;;;;;;4974283;28;20060;-75
2022/01/17 05:46:19;;;;;;;2.90;2.10;;;35.40;90.00;;;;;;4974795;28;20157;-74
2022/01/17 05:48:46;;;;;;;4.68;2.30;;;35.50;90.20;;;;;;4972718;28;20381;-74
2022/01/17 05:51:14;;;;;;;4.18;3.42;;;35.50;89.60;;;;;;4969639;28;20026;-75
2022/01/17 05:53:41;;;;;;;8.15;2.85;;;35.50;91.60;;;;;;4966641;28;20022;-74
2022/01/17 05:56:09;;;;;;;5.85;3.90;;;35.30;91.50;;;;;;4971280;28;20030;-75
2022/01/17 05:58:36;;;;;;;8.32;4.63;;;35.10;91.80;;;;;;4968665;28;20026;-73
2022/01/17 06:01:04;;;;;;;7.38;4.45;;;35.00;92.50;;;;;;4974534;28;20054;-75
2022/01/17 06:03:32;;;;;;;8.93;4.25;;;34.80;93.20;;;;;;4973309;28;20060;-75
2022/01/17 06:05:59;;;;;;;9.55;5.15;;;34.60;93.50;;;;;;4973804;28;20050;-74
2022/01/17 06:08:27;;;;;;;6.25;4.38;;;34.70;93.40;;;;;;4969614;28;20031;-75
2022/01/17 06:10:54;;;;;;;11.63;5.63;;;34.70;93.50;;;;;;4972151;28;20026;-77
2022/01/17 06:13:21;;;;;;;6.38;4.68;;;34.80;93.10;;;;;;4969071;28;20030;-74
2022/01/17 06:15:48;;;;;;;7.05;5.18;;;34.70;93.50;;;;;;4969496;28;20159;-75
2022/01/17 06:18:16;;;;;;;10.80;4.95;;;34.70;94.30;;;;;;4970476;28;20029;-77
2022/01/17 06:20:43;;;;;;;7.32;5.05;;;34.50;93.60;;;;;;4970252;28;20038;-75
2022/01/17 06:23:10;;;;;;;11.60;6.03;;;34.40;93.70;;;;;;4972063;28;20068;-75
2022/01/17 06:25:38;;;;;;;6.75;5.20;;;34.20;94.30;;;;;;4974235;28;20549;-75
2022/01/17 06:28:05;;;;;;;6.80;5.60;;;34.20;94.50;;;;;;4970583;28;20038;-75
2022/01/17 06:30:33;;;;;;;9.23;6.57;;;34.00;94.90;;;;;;4977695;28;20519;-75
2022/01/17 06:33:03;;;;;;;10.15;6.10;;;34.00;94.80;;;;;;4970517;28;20065;-74
2022/01/17 06:35:31;;;;;;;12.65;7.32;;;33.80;95.00;;;;;;4972942;28;20034;-74
2022/01/17 06:37:59;;;;;;;8.43;6.50;;;33.60;95.10;;;;;;4970653;28;20041;-75
2022/01/17 06:40:26;;;;;;;10.18;5.78;;;33.50;95.10;;;;;;4968013;28;20452;-74
2022/01/17 06:42:53;;;;;;;11.02;6.63;;;33.40;95.30;;;;;;4973488;28;20109;-74
2022/01/17 06:45:21;;;;;;;12.00;7.13;;;33.20;95.40;;;;;;4973877;28;20030;-77
2022/01/17 06:47:48;;;;;;;9.55;7.00;;;33.00;95.80;;;;;;4975319;28;20081;-73
2022/01/17 06:50:16;;;;;;;8.30;6.78;;;32.80;96.10;;;;;;4972634;28;20498;-76
2022/01/17 06:52:45;;;;;;;14.38;7.25;;;32.70;96.70;;;;;;4978555;28;20027;-76
2022/01/17 06:55:12;;;;;;;10.27;6.70;;;32.60;96.50;;;;;;4973752;28;20043;-76
2022/01/17 06:57:40;;;;;;;11.35;7.68;;;32.50;96.50;;;;;;4971897;28;20465;-76
2022/01/17 07:00:10;;;;;;;12.15;7.32;;;32.40;96.50;;;;;;4968784;28;20141;-75
2022/01/17 07:02:38;;;;;;;11.98;7.88;;;32.30;96.60;;;;;;4968295;28;20027;-76
2022/01/17 07:05:06;;;;;;;15.80;8.80;;;32.20;96.90;;;;;;4972106;28;20031;-76
2022/01/17 07:07:34;;;;;;;13.48;9.77;;;32.10;97.00;;;;;;4970848;28;20120;-75
2022/01/17 07:10:01;;;;;;;14.65;8.75;;;32.00;97.30;;;;;;4969740;28;20035;-75
2022/01/17 07:12:28;;;;;;;11.10;9.10;;;31.90;97.40;;;;;;4971813;28;20046;-75
2022/01/17 07:14:55;;;;;;;10.70;9.45;;;31.80;97.60;;;;;;4967743;28;20117;-75
2022/01/17 07:17:23;;;;;;;14.73;9.57;;;31.70;97.70;;;;;;4973608;28;20358;-75
2022/01/17 07:19:50;;;;;;;13.10;8.15;;;31.60;97.80;;;;;;4969066;28;20066;-75
2022/01/17 07:22:17;;;;;;;10.77;8.90;;;31.40;98.00;;;;;;4973120;28;20026;-75
2022/01/17 07:24:47;;;;;;;14.80;8.90;;;31.30;98.40;;;;;;4977850;28;20061;-75
2022/01/17 07:27:16;;;;;;;15.52;9.23;;;31.20;98.50;;;;;;4967375;28;20038;-74
2022/01/17 07:29:43;;;;;;;16.08;9.00;;;31.20;98.60;;;;;;4968099;28;20034;-75
2022/01/17 07:32:11;;;;;;;14.98;9.38;;;31.10;98.60;;;;;;4979601;28;20039;-74
2022/01/17 07:34:38;;;;;;;14.73;9.32;;;31.00;98.70;;;;;;4972985;28;20034;-74
2022/01/17 07:37:06;;;;;;;11.80;9.18;;;31.00;98.90;;;;;;4983061;28;20058;-74
2022/01/17 07:39:33;;;;;;;16.52;9.80;;;30.90;99.00;;;;;;4957914;28;20035;-74
2022/01/17 07:42:00;;;;;;;19.80;10.57;;;30.90;99.20;;;;;;4972660;28;20034;-74
2022/01/17 07:44:30;;;;;;;12.80;10.13;;;30.80;99.10;;;;;;4968485;28;20025;-74
2022/01/17 07:47:00;;;;;;;15.70;10.63;;;30.70;99.30;;;;;;4971968;28;20092;-74
2022/01/17 07:49:29;;;;;;;15.25;9.77;;;30.60;99.50;;;;;;4966213;28;20031;-75
2022/01/17 07:52:02;;;;;;;14.20;8.95;;;30.50;99.60;;;;;;4969265;28;20089;-75
2022/01/17 07:54:35;;;;;;;12.88;8.52;;;30.50;99.30;;;;;;4971200;28;20118;-75
2022/01/17 07:57:03;;;;;;;20.60;10.05;;;30.40;98.90;;;;;;4969875;28;20430;-75
2022/01/17 07:59:30;;;;;;;12.85;8.93;;;30.30;99.20;;;;;;4976423;28;20113;-75
2022/01/17 08:02:00;;;;;;;10.63;7.22;;;30.20;99.20;;;;;;4973988;28;20035;-75
2022/01/17 08:04:28;;;;;;;13.55;9.35;;;30.20;99.20;;;;;;4972105;28;20330;-75
2022/01/17 08:06:55;;;;;;;9.73;7.32;;;30.10;99.50;;;;;;4970304;28;20574;-75
2022/01/17 08:09:26;;;;;;;12.07;8.48;;;30.00;99.50;;;;;;4969021;28;20042;-75
2022/01/17 08:11:53;;;;;;;10.70;8.13;;;29.90;99.70;;;;;;4970174;28;20043;-76
2022/01/17 08:14:23;;;;;;;10.75;7.82;;;29.90;99.70;;;;;;4970510;28;20049;-75
2022/01/17 08:16:50;;;;;;;12.05;7.82;;;29.80;99.90;;;;;;4969991;28;20034;-74
2022/01/17 08:19:18;;;;;;;11.85;7.18;;;29.80;99.80;;;;;;4971159;28;20026;-75
2022/01/17 08:21:47;;;;;;;13.88;7.63;;;29.70;99.90;;;;;;4968844;28;20081;-75
2022/01/17 08:24:14;;;;;;;10.65;7.35;;;29.70;99.90;;;;;;4972256;28;20047;-75
2022/01/17 08:26:43;;;;;;;10.73;8.18;;;29.60;99.90;;;;;;4972725;28;20030;-74
2022/01/17 08:29:14;;;;;;;10.25;7.60;;;29.60;99.90;;;;;;4974853;28;20050;-75
2022/01/17 08:31:46;;;;;;;12.73;8.55;;;29.50;99.90;;;;;;4976715;28;20035;-75
2022/01/17 08:34:15;;;;;;;10.82;6.80;;;29.40;99.90;;;;;;4973616;28;20501;-74
2022/01/17 08:36:46;;;;;;;9.82;7.65;;;29.40;99.90;;;;;;4968539;28;20053;-75
2022/01/17 08:39:15;;;;;;;20.40;7.80;;;29.40;99.90;;;;;;4970159;28;20034;-76
2022/01/17 08:41:42;;;;;;;16.55;8.05;;;29.40;99.90;;;;;;4973385;28;20031;-74
2022/01/17 08:44:12;;;;;;;9.32;8.10;;;29.30;99.90;;;;;;4972670;28;20069;-74
2022/01/17 08:46:40;;;;;;;13.40;6.70;;;29.30;99.90;;;;;;4976256;28;20022;-75
2022/01/17 08:49:08;;;;;;;11.52;6.85;;;29.20;99.90;;;;;;4976509;28;20031;-74
2022/01/17 08:51:35;;;;;;;13.23;6.18;;;29.20;99.90;;;;;;4975316;28;20058;-74
2022/01/17 08:54:04;;;;;;;10.32;5.82;;;29.10;99.90;;;;;;4968961;28;20476;-74
2022/01/17 08:56:32;;;;;;;11.65;5.93;;;29.10;99.90;;;;;;4974708;28;20030;-75
2022/01/17 08:59:00;;;;;;;10.77;5.30;;;29.10;99.90;;;;;;4971806;28;20489;-74
2022/01/17 09:01:28;;;;;;;10.00;5.55;;;29.00;99.90;;;;;;4970222;28;20034;-75
2022/01/17 09:03:55;;;;;;;11.00;5.90;;;29.00;99.90;;;;;;4970452;28;20573;-75
2022/01/17 09:06:23;;;;;;;9.20;5.20;;;29.00;99.90;;;;;;4974928;28;20030;-74
2022/01/17 09:08:51;;;;;;;6.97;5.25;;;28.90;99.90;;;;;;4974149;28;20035;-75
2022/01/17 09:11:18;;;;;;;8.80;5.90;;;28.90;99.90;;;;;;4972343;28;20134;-74
2022/01/17 09:13:47;;;;;;;8.82;5.13;;;28.90;99.90;;;;;;4965889;28;20027;-75
2022/01/17 09:16:15;;;;;;;10.30;5.13;;;28.80;99.90;;;;;;4983023;28;20117;-76
2022/01/17 09:18:42;;;;;;;10.05;5.25;;;28.80;99.90;;;;;;4967963;28;20431;-75
2022/01/17 09:21:10;;;;;;;9.75;5.95;;;28.80;99.90;;;;;;4969593;28;20062;-75
2022/01/17 09:23:38;;;;;;;8.18;5.95;;;28.70;99.90;;;;;;4977851;28;20525;-74
2022/01/17 09:26:06;;;;;;;11.98;6.13;;;28.60;99.90;;;;;;4978654;28;20046;-75
2022/01/17 09:28:34;;;;;;;7.53;5.70;;;28.60;99.90;;;;;;4970267;28;20450;-74
2022/01/17 09:31:01;;;;;;;11.55;6.40;;;28.50;99.90;;;;;;4972901;28;20041;-74
2022/01/17 09:33:29;;;;;;;8.70;6.00;;;28.50;99.90;;;;;;4972171;28;20031;-74
2022/01/17 09:35:56;;;;;;;9.57;5.90;;;28.50;99.90;;;;;;4975409;28;20078;-75
2022/01/17 09:38:24;;;;;;;14.68;6.22;;;28.50;99.90;;;;;;4972490;28;20637;-74
2022/01/17 09:40:51;;;;;;;11.05;5.32;;;28.50;99.90;;;;;;4978953;28;20423;-75
2022/01/17 09:43:19;;;;;;;8.77;5.63;;;28.40;99.90;;;;;;4969921;28;20035;-74
2022/01/17 09:45:46;;;;;;;12.60;5.72;;;28.30;99.90;;;;;;4970694;28;20490;-75
2022/01/17 09:48:19;;;;;;;7.70;5.72;;;28.30;99.90;;;;;;4975393;28;20678;-74
2022/01/17 09:51:01;;;;;;;8.27;5.80;;;28.20;99.90;;;;;;4968356;28;20539;-75
2022/01/17 09:53:34;;;;;;;10.40;6.13;;;28.20;99.90;;;;;;4973869;28;20406;-74
2022/01/17 09:56:03;;;;;;;8.70;5.85;;;28.20;99.90;;;;;;4972467;28;20533;-74
2022/01/17 09:58:31;;;;;;;11.93;6.25;;;28.20;99.90;;;;;;4972576;28;20035;-74
2022/01/17 10:00:59;;;;;;;10.82;6.82;;;28.10;99.90;;;;;;4967609;28;20029;-74
2022/01/17 10:03:27;;;;;;;10.77;6.15;;;28.10;99.90;;;;;;4970427;28;20019;-76
2022/01/17 10:05:55;;;;;;;11.13;6.30;;;28.10;99.90;;;;;;4970906;28;20086;-75
2022/01/17 10:08:23;;;;;;;20.60;7.97;;;28.10;99.90;;;;;;4972006;28;20077;-76
2022/01/17 10:11:04;;;;;;;10.27;5.72;;;28.10;99.90;;;;;;4979027;28;20030;-75
2022/01/17 10:13:35;;;;;;;11.20;5.65;;;28.10;99.90;;;;;;4975354;28;20041;-75
2022/01/17 10:16:08;;;;;;;11.40;6.07;;;28.00;99.90;;;;;;4971894;28;20485;-75
2022/01/17 10:19:03;;;;;;;8.25;5.47;;;28.00;99.90;;;;;;4970616;28;20026;-76
2022/01/17 10:21:40;;;;;;;9.88;6.63;;;28.00;99.90;;;;;;4978241;28;20669;-75
2022/01/17 10:24:19;;;;;;;11.77;5.90;;;28.00;99.90;;;;;;4970628;28;20075;-75
2022/01/17 10:35:18;;;;;;;9.70;7.18;;;28.00;99.90;;;;;;4970231;28;20046;-75
2022/01/17 10:38:16;;;;;;;10.70;7.53;;;28.00;99.90;;;;;;4966690;28;20022;-75
2022/01/17 10:41:00;;;;;;;10.75;8.05;;;27.90;99.90;;;;;;4970749;28;20023;-73
2022/01/17 10:43:35;;;;;;;11.00;7.03;;;27.90;99.90;;;;;;4969700;28;20037;-74
2022/01/17 10:46:11;;;;;;;11.88;7.78;;;27.80;99.90;;;;;;4979538;28;20062;-75
2022/01/17 10:48:47;;;;;;;11.50;7.43;;;27.80;99.90;;;;;;4967642;28;20033;-75
2022/01/17 10:51:18;;;;;;;15.10;7.90;;;27.80;99.90;;;;;;4969542;28;20524;-75
2022/01/17 10:53:51;;;;;;;14.15;7.75;;;27.80;99.90;;;;;;4973577;28;20023;-75
2022/01/17 10:56:18;;;;;;;11.27;6.97;;;27.80;99.90;;;;;;4980430;28;20062;-75
2022/01/17 10:58:45;;;;;;;9.77;6.90;;;27.70;99.90;;;;;;4967082;28;20069;-75
2022/01/17 11:01:16;;;;;;;10.65;7.03;;;27.70;99.90;;;;;;4967793;28;20066;-75
2022/01/17 11:03:47;;;;;;;10.50;5.70;;;27.70;99.90;;;;;;4968778;28;20510;-75
2022/01/17 11:06:24;;;;;;;13.77;7.20;;;27.70;99.90;;;;;;4976647;28;20418;-75
2022/01/17 11:08:52;;;;;;;11.45;8.32;;;27.70;99.90;;;;;;4965468;28;20035;-75
2022/01/17 11:11:23;;;;;;;11.02;7.50;;;27.60;99.90;;;;;;4970182;28;20050;-75
2022/01/17 11:13:54;;;;;;;9.27;6.15;;;27.60;99.90;;;;;;4969918;28;20106;-76
2022/01/17 11:16:23;;;;;;;10.15;7.05;;;27.60;99.90;;;;;;4972356;28;20039;-75
2022/01/17 11:20:01;;;;;;;11.02;7.93;;;27.60;99.90;;;;;;4966979;28;20023;-75
2022/01/17 11:21:40;;;;;;;16.92;8.00;;;27.50;99.90;;;;;;4975206;28;20049;-75
2022/01/17 11:24:08;;;;;;;10.52;6.93;;;27.50;99.90;;;;;;4977224;28;20043;-74
2022/01/17 11:26:36;;;;;;;13.43;9.38;;;27.50;99.90;;;;;;4971610;28;20046;-75
2022/01/17 11:29:03;;;;;;;16.45;8.93;;;27.40;99.90;;;;;;4967570;28;20494;-75
2022/01/17 11:31:31;;;;;;;12.75;7.93;;;27.40;99.90;;;;;;4970773;28;20027;-74
2022/01/17 11:33:58;;;;;;;37.85;9.32;;;27.40;99.90;;;;;;4968347;28;20043;-76
2022/01/17 11:36:26;;;;;;;10.85;7.93;;;27.40;99.90;;;;;;4970781;28;20034;-75
2022/01/17 11:38:55;;;;;;;12.05;8.65;;;27.40;99.90;;;;;;4967372;28;20014;-74
2022/01/17 11:41:26;;;;;;;10.32;7.38;;;27.30;99.90;;;;;;4971856;28;20406;-76
2022/01/17 11:43:57;;;;;;;13.90;9.18;;;27.30;99.90;;;;;;4967695;28;20026;-75
2022/01/17 11:46:30;;;;;;;12.00;8.60;;;27.30;99.90;;;;;;4976904;28;20074;-74
2022/01/17 11:49:09;;;;;;;17.95;9.32;;;27.30;99.90;;;;;;4965918;28;20464;-75
2022/01/17 11:51:48;;;;;;;12.43;8.48;;;27.20;99.90;;;;;;4966136;28;20441;-75
2022/01/17 11:54:21;;;;;;;12.43;9.07;;;27.20;99.90;;;;;;4958209;28;20049;-74
2022/01/17 11:57:06;;;;;;;13.65;9.50;;;27.10;99.90;;;;;;4970405;28;20073;-74
2022/01/17 11:59:36;;;;;;;15.23;8.80;;;27.10;99.90;;;;;;4964822;28;20035;-73
2022/01/17 12:02:33;;;;;;;14.02;8.85;;;27.10;99.90;;;;;;4968220;28;20388;-74
2022/01/17 12:05:11;;;;;;;15.05;9.00;;;27.10;99.90;;;;;;4969134;28;20019;-75
2022/01/17 12:07:56;;;;;;;14.93;9.50;;;27.10;99.90;;;;;;4969380;28;20062;-74
2022/01/17 12:10:38;;;;;;;17.03;10.90;;;27.10;99.90;;;;;;4969459;28;20022;-75
2022/01/17 12:13:17;;;;;;;16.70;10.63;;;27.10;99.90;;;;;;4962934;28;20698;-75
2022/01/17 12:16:10;;;;;;;15.05;9.48;;;27.00;99.90;;;;;;4967326;28;20094;-74
2022/01/17 12:18:41;;;;;;;17.73;10.82;;;27.00;99.90;;;;;;4966233;28;20089;-75
2022/01/17 12:21:24;;;;;;;16.02;8.40;;;27.00;99.90;;;;;;4973832;28;20062;-76
2022/01/17 12:24:12;;;;;;;16.10;9.90;;;27.00;99.90;;;;;;4965629;28;20261;-75
2022/01/17 12:26:39;;;;;;;11.35;8.40;;;26.90;99.90;;;;;;4965453;28;20031;-75
2022/01/17 12:29:07;;;;;;;19.48;8.77;;;26.90;99.90;;;;;;4962312;28;20019;-79
2022/01/17 12:31:46;;;;;;;11.07;7.68;;;26.80;99.90;;;;;;4974329;28;20134;-74
2022/01/17 12:34:29;;;;;;;11.27;7.35;;;26.80;99.90;;;;;;4970614;28;20377;-74
2022/01/17 12:36:58;;;;;;;8.73;6.55;;;26.80;99.90;;;;;;4969245;28;20035;-76
2022/01/17 12:39:30;;;;;;;10.65;6.28;;;26.80;99.90;;;;;;4968964;28;20041;-74
2022/01/17 12:42:03;;;;;;;4.90;4.40;;;26.80;99.90;;;;;;4970965;28;20098;-73
2022/01/17 12:44:36;;;;;;;8.38;3.78;;;26.80;99.90;;;;;;4965391;28;20035;-75
2022/01/17 12:47:05;;;;;;;4.45;3.50;;;26.80;99.90;;;;;;4969969;28;20141;-73
2022/01/17 12:49:32;;;;;;;5.35;2.90;;;26.80;99.90;;;;;;4966366;28;20035;-73
2022/01/17 12:52:01;;;;;;;5.00;3.00;;;26.70;99.90;;;;;;4967686;28;20060;-73
2022/01/17 12:54:30;;;;;;;4.53;3.33;;;26.80;99.90;;;;;;4962945;28;20467;-74
2022/01/17 12:57:01;;;;;;;4.18;2.13;;;26.80;99.90;;;;;;4971391;28;20038;-75
2022/01/17 12:59:29;;;;;;;2.28;2.03;;;26.80;99.90;;;;;;4971487;28;20034;-75
2022/01/17 13:02:00;;;;;;;6.05;2.88;;;26.80;99.90;;;;;;4975122;28;20133;-72
2022/01/17 13:04:32;;;;;;;3.17;2.38;;;26.80;99.90;;;;;;4972200;28;20023;-73
2022/01/17 13:07:01;;;;;;;3.58;2.03;;;26.80;99.90;;;;;;4969205;28;20031;-74
2022/01/17 13:09:30;;;;;;;2.88;2.08;;;26.80;99.90;;;;;;5000539;28;20049;-74
2022/01/17 13:11:59;;;;;;;2.28;1.90;;;26.80;99.90;;;;;;4975515;28;20031;-73
2022/01/17 13:14:27;;;;;;;3.28;2.13;;;26.70;99.90;;;;;;4967147;28;20122;-74
2022/01/17 13:16:54;;;;;;;3.58;1.50;;;26.70;99.90;;;;;;4971929;28;21662;-74
2022/01/17 13:19:25;;;;;;;2.47;1.70;;;26.70;99.90;;;;;;4974648;28;20042;-74